sensor_id;sensor_type;location;lat;lon;timestamp;temperature;humidity
24410;DHT22;12543;53.364;-1.504;2022-12-07T00:01:26;4.40;99.90
24410;DHT22;12543;53.364;-1.504;2022-12-07T00:03:55;4.40;99.90
24410;DHT22;12543;53.364;-1.504;2022-12-07T00:06:33;4.30;99.90
24410;DHT22;12543;53.364;-1.504;2022-12-07T00:09:01;4.30;99.90
24410;DHT22;12543;53.364;-1.504;2022-12-07T00:11:28;4.30;99.90
24410;DHT22;12543;53.364;-1.504;2022-12-07T00:13:57;4.30;99.90
24410;DHT22;12543;53.364;-1.504;2022-12-07T00:16:30;4.30;99.90
24410;DHT22;12543;53.364;-1.504;2022-12-07T00:18:58;4.20;99.90
24410;DHT22;12543;53.364;-1.504;2022-12-07T00:21:31;4.20;99.90
24410;DHT22;12543;53.364;-1.504;2022-12-07T00:23:58;4.20;99.90
24410;DHT22;12543;53.364;-1.504;2022-12-07T00:26:35;4.20;99.90
24410;DHT22;12543;53.364;-1.504;2022-12-07T00:29:25;4.20;99.90
24410;DHT22;12543;53.364;-1.504;2022-12-07T00:31:52;4.10;99.90
24410;DHT22;12543;53.364;-1.504;2022-12-07T00:34:20;4.10;99.90
24410;DHT22;12543;53.364;-1.504;2022-12-07T00:36:48;4.10;99.90
24410;DHT22;12543;53.364;-1.504;2022-12-07T00:39:16;4.10;99.90
24410;DHT22;12543;53.364;-1.504;2022-12-07T00:41:43;4.10;99.90
24410;DHT22;12543;53.364;-1.504;2022-12-07T00:44:10;4.10;99.90
24410;DHT22;12543;53.364;-1.504;2022-12-07T00:46:37;4.10;99.90
24410;DHT22;12543;53.364;-1.504;2022-12-07T00:49:04;4.10;99.90
24410;DHT22;12543;53.364;-1.504;2022-12-07T00:51:31;4.10;99.90
24410;DHT22;12543;53.364;-1.504;2022-12-07T00:53:58;4.10;99.90
24410;DHT22;12543;53.364;-1.504;2022-12-07T00:56:27;4.10;99.90
24410;DHT22;12543;53.364;-1.504;2022-12-07T00:59:02;4.10;99.90
24410;DHT22;12543;53.364;-1.504;2022-12-07T01:01:35;4.00;99.90
24410;DHT22;12543;53.364;-1.504;2022-12-07T01:04:03;4.00;99.90
24410;DHT22;12543;53.364;-1.504;2022-12-07T01:06:31;4.00;99.90
24410;DHT22;12543;53.364;-1.504;2022-12-07T01:08:58;4.00;99.90
24410;DHT22;12543;53.364;-1.504;2022-12-07T01:11:28;4.10;99.90
24410;DHT22;12543;53.364;-1.504;2022-12-07T01:13:57;4.10;99.90
24410;DHT22;12543;53.364;-1.504;2022-12-07T01:16:26;4.10;99.90
24410;DHT22;12543;53.364;-1.504;2022-12-07T01:18:54;4.10;99.90
24410;DHT22;12543;53.364;-1.504;2022-12-07T01:21:22;4.10;99.90
24410;DHT22;12543;53.364;-1.504;2022-12-07T01:23:50;4.00;99.90
24410;DHT22;12543;53.364;-1.504;2022-12-07T01:26:21;4.00;99.90
24410;DHT22;12543;53.364;-1.504;2022-12-07T01:28:49;4.00;99.90
24410;DHT22;12543;53.364;-1.504;2022-12-07T01:31:19;3.90;99.90
24410;DHT22;12543;53.364;-1.504;2022-12-07T01:33:48;3.90;99.90
24410;DHT22;12543;53.364;-1.504;2022-12-07T01:36:21;3.90;99.90
24410;DHT22;12543;53.364;-1.504;2022-12-07T01:38:51;3.90;99.90
24410;DHT22;12543;53.364;-1.504;2022-12-07T01:41:20;3.90;99.90
24410;DHT22;12543;53.364;-1.504;2022-12-07T01:44:21;3.80;99.90
24410;DHT22;12543;53.364;-1.504;2022-12-07T01:49:31;3.80;99.90
24410;DHT22;12543;53.364;-1.504;2022-12-07T01:52:22;3.80;99.90
24410;DHT22;12543;53.364;-1.504;2022-12-07T01:54:56;3.80;99.90
24410;DHT22;12543;53.364;-1.504;2022-12-07T01:57:24;3.80;99.90
24410;DHT22;12543;53.364;-1.504;2022-12-07T01:59:52;3.70;99.90
24410;DHT22;12543;53.364;-1.504;2022-12-07T02:02:30;3.80;99.90
24410;DHT22;12543;53.364;-1.504;2022-12-07T02:05:03;3.70;99.90
24410;DHT22;12543;53.364;-1.504;2022-12-07T02:07:36;3.70;99.90
24410;DHT22;12543;53.364;-1.504;2022-12-07T02:10:17;3.70;99.90
24410;DHT22;12543;53.364;-1.504;2022-12-07T02:12:47;3.80;99.90
24410;DHT22;12543;53.364;-1.504;2022-12-07T02:15:15;3.80;99.90
24410;DHT22;12543;53.364;-1.504;2022-12-07T02:18:04;3.80;99.90
24410;DHT22;12543;53.364;-1.504;2022-12-07T02:20:42;3.80;99.90
24410;DHT22;12543;53.364;-1.504;2022-12-07T02:26:08;3.80;99.90
24410;DHT22;12543;53.364;-1.504;2022-12-07T02:28:56;3.80;99.90
24410;DHT22;12543;53.364;-1.504;2022-12-07T02:31:31;3.80;99.90
24410;DHT22;12543;53.364;-1.504;2022-12-07T02:34:09;3.90;99.90
24410;DHT22;12543;53.364;-1.504;2022-12-07T02:36:42;3.80;99.90
24410;DHT22;12543;53.364;-1.504;2022-12-07T02:39:19;3.80;99.90
24410;DHT22;12543;53.364;-1.504;2022-12-07T02:41:51;3.80;99.90
24410;DHT22;12543;53.364;-1.504;2022-12-07T02:44:21;3.80;99.90
24410;DHT22;12543;53.364;-1.504;2022-12-07T02:46:55;3.80;99.90
24410;DHT22;12543;53.364;-1.504;2022-12-07T02:49:27;3.70;99.90
24410;DHT22;12543;53.364;-1.504;2022-12-07T02:51:56;3.70;99.90
24410;DHT22;12543;53.364;-1.504;2022-12-07T02:54:24;3.70;99.90
24410;DHT22;12543;53.364;-1.504;2022-12-07T02:57:02;3.70;99.90
24410;DHT22;12543;53.364;-1.504;2022-12-07T03:05:49;3.60;99.90
24410;DHT22;12543;53.364;-1.504;2022-12-07T03:11:04;3.60;99.90
24410;DHT22;12543;53.364;-1.504;2022-12-07T03:13:45;3.50;99.90
24410;DHT22;12543;53.364;-1.504;2022-12-07T03:16:16;3.50;99.90
24410;DHT22;12543;53.364;-1.504;2022-12-07T03:18:53;3.50;99.90
24410;DHT22;12543;53.364;-1.504;2022-12-07T03:21:26;3.50;99.90
24410;DHT22;12543;53.364;-1.504;2022-12-07T03:23:56;3.50;99.90
24410;DHT22;12543;53.364;-1.504;2022-12-07T03:26:31;3.50;99.90
24410;DHT22;12543;53.364;-1.504;2022-12-07T03:29:03;3.50;99.90
24410;DHT22;12543;53.364;-1.504;2022-12-07T03:31:34;3.50;99.90
24410;DHT22;12543;53.364;-1.504;2022-12-07T03:34:26;3.50;99.90
24410;DHT22;12543;53.364;-1.504;2022-12-07T03:37:07;3.50;99.90
24410;DHT22;12543;53.364;-1.504;2022-12-07T03:40:03;3.50;99.90
24410;DHT22;12543;53.364;-1.504;2022-12-07T03:42:33;3.50;99.90
24410;DHT22;12543;53.364;-1.504;2022-12-07T03:45:02;3.40;99.90
24410;DHT22;12543;53.364;-1.504;2022-12-07T03:47:33;3.40;99.90
24410;DHT22;12543;53.364;-1.504;2022-12-07T03:50:26;3.40;99.90
24410;DHT22;12543;53.364;-1.504;2022-12-07T03:52:59;3.40;99.90
24410;DHT22;12543;53.364;-1.504;2022-12-07T03:55:31;3.40;99.90
24410;DHT22;12543;53.364;-1.504;2022-12-07T03:58:04;3.40;99.90
24410;DHT22;12543;53.364;-1.504;2022-12-07T04:00:33;3.40;99.90
24410;DHT22;12543;53.364;-1.504;2022-12-07T04:03:00;3.40;99.90
24410;DHT22;12543;53.364;-1.504;2022-12-07T04:05:27;3.40;99.90
24410;DHT22;12543;53.364;-1.504;2022-12-07T04:07:55;3.40;99.90
24410;DHT22;12543;53.364;-1.504;2022-12-07T04:10:22;3.30;99.90
24410;DHT22;12543;53.364;-1.504;2022-12-07T04:12:49;3.40;99.90
24410;DHT22;12543;53.364;-1.504;2022-12-07T04:15:16;3.30;99.90
24410;DHT22;12543;53.364;-1.504;2022-12-07T04:17:43;3.30;99.90
24410;DHT22;12543;53.364;-1.504;2022-12-07T04:20:10;3.30;99.90
24410;DHT22;12543;53.364;-1.504;2022-12-07T04:22:37;3.30;99.90
24410;DHT22;12543;53.364;-1.504;2022-12-07T04:25:05;3.30;99.90
24410;DHT22;12543;53.364;-1.504;2022-12-07T04:27:32;3.30;99.90
24410;DHT22;12543;53.364;-1.504;2022-12-07T04:29:59;3.20;99.90
24410;DHT22;12543;53.364;-1.504;2022-12-07T04:32:27;3.30;99.90
24410;DHT22;12543;53.364;-1.504;2022-12-07T04:34:53;3.30;99.90
24410;DHT22;12543;53.364;-1.504;2022-12-07T04:37:22;3.20;99.90
24410;DHT22;12543;53.364;-1.504;2022-12-07T04:39:49;3.20;99.90
24410;DHT22;12543;53.364;-1.504;2022-12-07T04:42:17;3.20;99.90
24410;DHT22;12543;53.364;-1.504;2022-12-07T04:44:43;3.20;99.90
24410;DHT22;12543;53.364;-1.504;2022-12-07T04:47:11;3.20;99.90
24410;DHT22;12543;53.364;-1.504;2022-12-07T04:49:38;3.20;99.90
24410;DHT22;12543;53.364;-1.504;2022-12-07T04:52:05;3.20;99.90
24410;DHT22;12543;53.364;-1.504;2022-12-07T04:54:32;3.20;99.90
24410;DHT22;12543;53.364;-1.504;2022-12-07T04:56:59;3.10;99.90
24410;DHT22;12543;53.364;-1.504;2022-12-07T04:59:26;3.20;99.90
24410;DHT22;12543;53.364;-1.504;2022-12-07T05:01:53;3.10;99.90
24410;DHT22;12543;53.364;-1.504;2022-12-07T05:04:20;3.10;99.90
24410;DHT22;12543;53.364;-1.504;2022-12-07T05:06:47;3.10;99.90
24410;DHT22;12543;53.364;-1.504;2022-12-07T05:09:14;3.10;99.90
24410;DHT22;12543;53.364;-1.504;2022-12-07T05:11:41;3.10;99.90
24410;DHT22;12543;53.364;-1.504;2022-12-07T05:14:12;3.10;99.90
24410;DHT22;12543;53.364;-1.504;2022-12-07T05:16:40;3.10;99.90
24410;DHT22;12543;53.364;-1.504;2022-12-07T05:19:08;3.10;99.90
24410;DHT22;12543;53.364;-1.504;2022-12-07T05:21:36;3.10;99.90
24410;DHT22;12543;53.364;-1.504;2022-12-07T05:24:04;3.10;99.90
24410;DHT22;12543;53.364;-1.504;2022-12-07T05:26:32;3.10;99.90
24410;DHT22;12543;53.364;-1.504;2022-12-07T05:28:59;3.10;99.90
24410;DHT22;12543;53.364;-1.504;2022-12-07T05:31:26;3.10;99.90
24410;DHT22;12543;53.364;-1.504;2022-12-07T05:33:54;3.10;99.90
24410;DHT22;12543;53.364;-1.504;2022-12-07T05:36:22;3.10;99.90
24410;DHT22;12543;53.364;-1.504;2022-12-07T05:38:49;3.10;99.90
24410;DHT22;12543;53.364;-1.504;2022-12-07T05:41:18;3.10;99.90
24410;DHT22;12543;53.364;-1.504;2022-12-07T05:44:04;3.10;99.90
24410;DHT22;12543;53.364;-1.504;2022-12-07T05:46:32;3.10;99.90
24410;DHT22;12543;53.364;-1.504;2022-12-07T05:49:00;3.10;99.90
24410;DHT22;12543;53.364;-1.504;2022-12-07T05:51:27;3.20;99.90
24410;DHT22;12543;53.364;-1.504;2022-12-07T05:53:54;3.20;99.90
24410;DHT22;12543;53.364;-1.504;2022-12-07T05:56:21;3.20;99.90
24410;DHT22;12543;53.364;-1.504;2022-12-07T05:58:48;3.20;99.90
24410;DHT22;12543;53.364;-1.504;2022-12-07T06:01:33;3.20;99.90
24410;DHT22;12543;53.364;-1.504;2022-12-07T06:04:00;3.20;99.90
24410;DHT22;12543;53.364;-1.504;2022-12-07T06:06:28;3.10;99.90
24410;DHT22;12543;53.364;-1.504;2022-12-07T06:08:55;3.10;99.90
24410;DHT22;12543;53.364;-1.504;2022-12-07T06:11:22;3.10;99.90
24410;DHT22;12543;53.364;-1.504;2022-12-07T06:14:07;3.10;99.90
24410;DHT22;12543;53.364;-1.504;2022-12-07T06:16:34;3.10;99.90
24410;DHT22;12543;53.364;-1.504;2022-12-07T06:19:01;3.10;99.90
24410;DHT22;12543;53.364;-1.504;2022-12-07T06:21:28;3.10;99.90
24410;DHT22;12543;53.364;-1.504;2022-12-07T06:23:55;3.10;99.90
24410;DHT22;12543;53.364;-1.504;2022-12-07T06:26:22;3.00;99.90
24410;DHT22;12543;53.364;-1.504;2022-12-07T06:28:49;3.00;99.90
24410;DHT22;12543;53.364;-1.504;2022-12-07T06:31:16;3.00;99.90
24410;DHT22;12543;53.364;-1.504;2022-12-07T06:33:43;3.00;99.90
24410;DHT22;12543;53.364;-1.504;2022-12-07T06:36:11;3.00;99.90
24410;DHT22;12543;53.364;-1.504;2022-12-07T06:38:38;3.00;99.90
24410;DHT22;12543;53.364;-1.504;2022-12-07T06:41:05;3.00;99.90
24410;DHT22;12543;53.364;-1.504;2022-12-07T06:43:33;3.00;99.90
24410;DHT22;12543;53.364;-1.504;2022-12-07T06:46:00;3.00;99.90
24410;DHT22;12543;53.364;-1.504;2022-12-07T06:48:28;3.00;99.90
24410;DHT22;12543;53.364;-1.504;2022-12-07T06:50:55;2.90;99.90
24410;DHT22;12543;53.364;-1.504;2022-12-07T06:53:22;3.00;99.90
24410;DHT22;12543;53.364;-1.504;2022-12-07T06:55:49;2.90;99.90
24410;DHT22;12543;53.364;-1.504;2022-12-07T06:58:17;3.00;99.90
24410;DHT22;12543;53.364;-1.504;2022-12-07T07:00:44;2.90;99.90
24410;DHT22;12543;53.364;-1.504;2022-12-07T07:03:12;2.90;99.90
24410;DHT22;12543;53.364;-1.504;2022-12-07T07:05:39;2.90;99.90
24410;DHT22;12543;53.364;-1.504;2022-12-07T07:08:07;2.90;99.90
24410;DHT22;12543;53.364;-1.504;2022-12-07T07:10:50;2.90;99.90
24410;DHT22;12543;53.364;-1.504;2022-12-07T07:13:17;3.00;99.90
24410;DHT22;12543;53.364;-1.504;2022-12-07T07:15:44;2.90;99.90
24410;DHT22;12543;53.364;-1.504;2022-12-07T07:18:11;2.90;99.90
24410;DHT22;12543;53.364;-1.504;2022-12-07T07:20:39;3.00;99.90
24410;DHT22;12543;53.364;-1.504;2022-12-07T07:23:06;2.90;99.90
24410;DHT22;12543;53.364;-1.504;2022-12-07T07:25:34;2.90;99.90
24410;DHT22;12543;53.364;-1.504;2022-12-07T07:28:03;2.90;99.90
24410;DHT22;12543;53.364;-1.504;2022-12-07T07:30:30;2.90;99.90
24410;DHT22;12543;53.364;-1.504;2022-12-07T07:32:58;2.90;99.90
24410;DHT22;12543;53.364;-1.504;2022-12-07T07:35:27;2.80;99.90
24410;DHT22;12543;53.364;-1.504;2022-12-07T07:37:54;2.80;99.90
24410;DHT22;12543;53.364;-1.504;2022-12-07T07:40:22;2.90;99.90
24410;DHT22;12543;53.364;-1.504;2022-12-07T07:42:50;2.80;99.90
24410;DHT22;12543;53.364;-1.504;2022-12-07T07:45:19;2.90;99.90
24410;DHT22;12543;53.364;-1.504;2022-12-07T07:47:47;2.90;99.90
24410;DHT22;12543;53.364;-1.504;2022-12-07T07:50:14;2.90;99.90
24410;DHT22;12543;53.364;-1.504;2022-12-07T07:52:43;2.80;99.90
24410;DHT22;12543;53.364;-1.504;2022-12-07T07:55:10;2.90;99.90
24410;DHT22;12543;53.364;-1.504;2022-12-07T07:57:38;2.90;99.90
24410;DHT22;12543;53.364;-1.504;2022-12-07T08:00:12;2.90;99.90
24410;DHT22;12543;53.364;-1.504;2022-12-07T08:02:40;2.90;99.90
24410;DHT22;12543;53.364;-1.504;2022-12-07T08:05:07;2.90;99.90
24410;DHT22;12543;53.364;-1.504;2022-12-07T08:07:34;2.90;99.90
24410;DHT22;12543;53.364;-1.504;2022-12-07T08:10:02;2.90;99.90
24410;DHT22;12543;53.364;-1.504;2022-12-07T08:12:29;2.90;99.90
24410;DHT22;12543;53.364;-1.504;2022-12-07T08:14:56;2.90;99.90
24410;DHT22;12543;53.364;-1.504;2022-12-07T08:17:23;2.90;99.90
24410;DHT22;12543;53.364;-1.504;2022-12-07T08:19:50;3.00;99.90
24410;DHT22;12543;53.364;-1.504;2022-12-07T08:22:18;2.90;99.90
24410;DHT22;12543;53.364;-1.504;2022-12-07T08:24:45;2.90;99.90
24410;DHT22;12543;53.364;-1.504;2022-12-07T08:27:12;3.00;99.90
24410;DHT22;12543;53.364;-1.504;2022-12-07T08:29:39;3.00;99.90
24410;DHT22;12543;53.364;-1.504;2022-12-07T08:32:06;3.00;99.90
24410;DHT22;12543;53.364;-1.504;2022-12-07T08:34:35;3.00;99.90
24410;DHT22;12543;53.364;-1.504;2022-12-07T08:37:03;3.00;99.90
24410;DHT22;12543;53.364;-1.504;2022-12-07T08:39:30;3.10;99.90
24410;DHT22;12543;53.364;-1.504;2022-12-07T08:41:58;3.10;99.90
24410;DHT22;12543;53.364;-1.504;2022-12-07T08:44:26;3.10;99.90
24410;DHT22;12543;53.364;-1.504;2022-12-07T08:46:58;3.10;99.90
24410;DHT22;12543;53.364;-1.504;2022-12-07T08:49:36;3.10;99.90
24410;DHT22;12543;53.364;-1.504;2022-12-07T08:52:04;3.10;99.90
24410;DHT22;12543;53.364;-1.504;2022-12-07T08:54:34;3.10;99.90
24410;DHT22;12543;53.364;-1.504;2022-12-07T08:57:02;3.10;99.90
24410;DHT22;12543;53.364;-1.504;2022-12-07T08:59:29;3.10;99.90
24410;DHT22;12543;53.364;-1.504;2022-12-07T09:01:57;3.10;99.90
24410;DHT22;12543;53.364;-1.504;2022-12-07T09:04:24;3.10;99.90
24410;DHT22;12543;53.364;-1.504;2022-12-07T09:06:51;3.10;99.90
24410;DHT22;12543;53.364;-1.504;2022-12-07T09:09:18;3.10;99.90
24410;DHT22;12543;53.364;-1.504;2022-12-07T09:11:46;3.10;99.90
24410;DHT22;12543;53.364;-1.504;2022-12-07T09:14:13;3.10;99.90
24410;DHT22;12543;53.364;-1.504;2022-12-07T09:16:40;3.10;99.90
24410;DHT22;12543;53.364;-1.504;2022-12-07T09:19:08;3.10;99.90
24410;DHT22;12543;53.364;-1.504;2022-12-07T09:21:35;3.10;99.90
24410;DHT22;12543;53.364;-1.504;2022-12-07T09:24:02;3.10;99.90
24410;DHT22;12543;53.364;-1.504;2022-12-07T09:26:29;3.10;99.90
24410;DHT22;12543;53.364;-1.504;2022-12-07T09:28:56;3.10;99.90
24410;DHT22;12543;53.364;-1.504;2022-12-07T09:31:23;3.10;99.90
24410;DHT22;12543;53.364;-1.504;2022-12-07T09:33:59;3.20;99.90
24410;DHT22;12543;53.364;-1.504;2022-12-07T09:36:28;3.20;99.90
24410;DHT22;12543;53.364;-1.504;2022-12-07T09:38:55;3.20;99.90
24410;DHT22;12543;53.364;-1.504;2022-12-07T09:41:23;3.20;99.90
24410;DHT22;12543;53.364;-1.504;2022-12-07T09:43:51;3.20;99.90
24410;DHT22;12543;53.364;-1.504;2022-12-07T09:46:19;3.20;99.90
24410;DHT22;12543;53.364;-1.504;2022-12-07T09:48:48;3.20;99.90
24410;DHT22;12543;53.364;-1.504;2022-12-07T09:51:22;3.30;99.90
24410;DHT22;12543;53.364;-1.504;2022-12-07T09:53:53;3.30;99.90
24410;DHT22;12543;53.364;-1.504;2022-12-07T09:56:22;3.30;99.90
24410;DHT22;12543;53.364;-1.504;2022-12-07T09:58:55;3.30;99.90
24410;DHT22;12543;53.364;-1.504;2022-12-07T10:01:24;3.30;99.90
24410;DHT22;12543;53.364;-1.504;2022-12-07T10:03:59;3.30;99.90
24410;DHT22;12543;53.364;-1.504;2022-12-07T10:06:27;3.30;99.90
24410;DHT22;12543;53.364;-1.504;2022-12-07T10:08:54;3.30;99.90
24410;DHT22;12543;53.364;-1.504;2022-12-07T10:11:21;3.30;99.90
24410;DHT22;12543;53.364;-1.504;2022-12-07T10:13:51;3.30;99.90
24410;DHT22;12543;53.364;-1.504;2022-12-07T10:16:38;3.30;99.90
24410;DHT22;12543;53.364;-1.504;2022-12-07T10:19:37;3.30;99.90
24410;DHT22;12543;53.364;-1.504;2022-12-07T10:22:13;3.30;99.90
24410;DHT22;12543;53.364;-1.504;2022-12-07T10:24:42;3.30;99.90
24410;DHT22;12543;53.364;-1.504;2022-12-07T10:27:29;3.40;99.90
24410;DHT22;12543;53.364;-1.504;2022-12-07T10:29:57;3.40;99.90
24410;DHT22;12543;53.364;-1.504;2022-12-07T10:32:34;3.40;99.90
24410;DHT22;12543;53.364;-1.504;2022-12-07T10:35:27;3.40;99.90
24410;DHT22;12543;53.364;-1.504;2022-12-07T10:37:57;3.30;99.90
24410;DHT22;12543;53.364;-1.504;2022-12-07T10:40:32;3.30;99.90
24410;DHT22;12543;53.364;-1.504;2022-12-07T10:51:47;3.40;99.90
24410;DHT22;12543;53.364;-1.504;2022-12-07T11:02:25;3.50;99.90
24410;DHT22;12543;53.364;-1.504;2022-12-07T11:16:16;3.60;99.90
24410;DHT22;12543;53.364;-1.504;2022-12-07T11:21:45;3.60;99.90
24410;DHT22;12543;53.364;-1.504;2022-12-07T11:24:20;3.60;99.90
24410;DHT22;12543;53.364;-1.504;2022-12-07T11:38:01;3.60;99.90
24410;DHT22;12543;53.364;-1.504;2022-12-07T11:40:36;3.60;99.90
24410;DHT22;12543;53.364;-1.504;2022-12-07T11:43:31;3.60;99.90
24410;DHT22;12543;53.364;-1.504;2022-12-07T11:46:05;3.70;99.90
24410;DHT22;12543;53.364;-1.504;2022-12-07T11:49:02;3.70;99.90
24410;DHT22;12543;53.364;-1.504;2022-12-07T11:51:34;3.80;99.90
24410;DHT22;12543;53.364;-1.504;2022-12-07T11:54:39;3.80;99.90
24410;DHT22;12543;53.364;-1.504;2022-12-07T11:57:10;3.80;99.90
24410;DHT22;12543;53.364;-1.504;2022-12-07T12:00:00;3.80;99.90
24410;DHT22;12543;53.364;-1.504;2022-12-07T12:02:45;3.90;99.90
24410;DHT22;12543;53.364;-1.504;2022-12-07T12:05:21;3.90;99.90
24410;DHT22;12543;53.364;-1.504;2022-12-07T12:08:22;3.80;99.90
24410;DHT22;12543;53.364;-1.504;2022-12-07T12:17:25;3.90;99.90
24410;DHT22;12543;53.364;-1.504;2022-12-07T12:20:21;3.90;99.90
24410;DHT22;12543;53.364;-1.504;2022-12-07T12:25:29;3.90;99.90
24410;DHT22;12543;53.364;-1.504;2022-12-07T12:27:59;3.90;99.90
24410;DHT22;12543;53.364;-1.504;2022-12-07T12:30:36;3.90;99.90
24410;DHT22;12543;53.364;-1.504;2022-12-07T12:33:20;3.90;99.90
24410;DHT22;12543;53.364;-1.504;2022-12-07T12:39:09;4.00;99.90
24410;DHT22;12543;53.364;-1.504;2022-12-07T12:57:34;4.00;99.90
24410;DHT22;12543;53.364;-1.504;2022-12-07T13:00:23;4.00;99.90
24410;DHT22;12543;53.364;-1.504;2022-12-07T13:02:56;4.00;99.90
24410;DHT22;12543;53.364;-1.504;2022-12-07T13:05:27;4.00;99.90
24410;DHT22;12543;53.364;-1.504;2022-12-07T13:07:55;4.00;99.90
24410;DHT22;12543;53.364;-1.504;2022-12-07T13:12:57;4.00;99.90
24410;DHT22;12543;53.364;-1.504;2022-12-07T13:15:37;4.00;99.90
24410;DHT22;12543;53.364;-1.504;2022-12-07T13:26:19;4.00;99.90
24410;DHT22;12543;53.364;-1.504;2022-12-07T13:29:13;4.00;99.90
24410;DHT22;12543;53.364;-1.504;2022-12-07T13:34:40;4.00;99.90
24410;DHT22;12543;53.364;-1.504;2022-12-07T13:37:15;4.00;99.90
24410;DHT22;12543;53.364;-1.504;2022-12-07T13:39:54;4.00;99.90
24410;DHT22;12543;53.364;-1.504;2022-12-07T13:42:32;4.00;99.90
24410;DHT22;12543;53.364;-1.504;2022-12-07T13:45:17;4.00;99.90
24410;DHT22;12543;53.364;-1.504;2022-12-07T13:47:54;4.00;99.90
24410;DHT22;12543;53.364;-1.504;2022-12-07T13:50:24;4.00;99.90
24410;DHT22;12543;53.364;-1.504;2022-12-07T13:52:55;3.90;99.90
24410;DHT22;12543;53.364;-1.504;2022-12-07T13:55:22;4.00;99.90
24410;DHT22;12543;53.364;-1.504;2022-12-07T13:57:52;3.90;99.90
24410;DHT22;12543;53.364;-1.504;2022-12-07T14:00:22;4.00;99.90
24410;DHT22;12543;53.364;-1.504;2022-12-07T14:03:19;4.00;99.90
24410;DHT22;12543;53.364;-1.504;2022-12-07T14:06:04;3.90;99.90
24410;DHT22;12543;53.364;-1.504;2022-12-07T14:08:32;3.90;99.90
24410;DHT22;12543;53.364;-1.504;2022-12-07T14:10:59;3.90;99.90
24410;DHT22;12543;53.364;-1.504;2022-12-07T14:16:19;3.90;99.90
24410;DHT22;12543;53.364;-1.504;2022-12-07T14:18:49;3.90;99.90
24410;DHT22;12543;53.364;-1.504;2022-12-07T14:21:19;3.90;99.90
24410;DHT22;12543;53.364;-1.504;2022-12-07T14:24:12;3.90;99.90
24410;DHT22;12543;53.364;-1.504;2022-12-07T14:26:42;3.80;99.90
24410;DHT22;12543;53.364;-1.504;2022-12-07T14:31:52;3.80;99.90
24410;DHT22;12543;53.364;-1.504;2022-12-07T14:34:20;3.80;99.90
24410;DHT22;12543;53.364;-1.504;2022-12-07T14:36:48;3.80;99.90
24410;DHT22;12543;53.364;-1.504;2022-12-07T14:39:15;3.80;99.90
24410;DHT22;12543;53.364;-1.504;2022-12-07T14:41:42;3.70;99.90
24410;DHT22;12543;53.364;-1.504;2022-12-07T14:44:20;3.70;99.90
24410;DHT22;12543;53.364;-1.504;2022-12-07T14:46:51;3.80;99.90
24410;DHT22;12543;53.364;-1.504;2022-12-07T14:49:39;3.70;99.90
24410;DHT22;12543;53.364;-1.504;2022-12-07T14:52:16;3.70;99.90
24410;DHT22;12543;53.364;-1.504;2022-12-07T14:55:04;3.70;99.90
24410;DHT22;12543;53.364;-1.504;2022-12-07T14:57:32;3.70;99.90
24410;DHT22;12543;53.364;-1.504;2022-12-07T14:59:59;3.70;99.90
24410;DHT22;12543;53.364;-1.504;2022-12-07T15:02:26;3.70;99.90
24410;DHT22;12543;53.364;-1.504;2022-12-07T15:04:53;3.70;99.90
24410;DHT22;12543;53.364;-1.504;2022-12-07T15:07:20;3.60;99.90
24410;DHT22;12543;53.364;-1.504;2022-12-07T15:09:48;3.70;99.90
24410;DHT22;12543;53.364;-1.504;2022-12-07T15:12:15;3.70;99.90
24410;DHT22;12543;53.364;-1.504;2022-12-07T15:14:42;3.70;99.90
24410;DHT22;12543;53.364;-1.504;2022-12-07T15:17:11;3.60;99.90
24410;DHT22;12543;53.364;-1.504;2022-12-07T15:19:55;3.60;99.90
24410;DHT22;12543;53.364;-1.504;2022-12-07T15:22:22;3.60;99.90
24410;DHT22;12543;53.364;-1.504;2022-12-07T15:24:49;3.60;99.90
24410;DHT22;12543;53.364;-1.504;2022-12-07T15:27:16;3.60;99.90
24410;DHT22;12543;53.364;-1.504;2022-12-07T15:29:43;3.50;99.90
24410;DHT22;12543;53.364;-1.504;2022-12-07T15:32:10;3.50;99.90
24410;DHT22;12543;53.364;-1.504;2022-12-07T15:34:37;3.50;99.90
24410;DHT22;12543;53.364;-1.504;2022-12-07T15:37:06;3.50;99.90
24410;DHT22;12543;53.364;-1.504;2022-12-07T15:39:35;3.50;99.90
24410;DHT22;12543;53.364;-1.504;2022-12-07T15:42:03;3.50;99.90
24410;DHT22;12543;53.364;-1.504;2022-12-07T15:44:30;3.40;99.90
24410;DHT22;12543;53.364;-1.504;2022-12-07T15:47:15;3.40;99.90
24410;DHT22;12543;53.364;-1.504;2022-12-07T15:49:42;3.40;99.90
24410;DHT22;12543;53.364;-1.504;2022-12-07T15:52:09;3.40;99.90
24410;DHT22;12543;53.364;-1.504;2022-12-07T15:54:36;3.40;99.90
24410;DHT22;12543;53.364;-1.504;2022-12-07T15:57:04;3.40;99.90
24410;DHT22;12543;53.364;-1.504;2022-12-07T15:59:31;3.40;99.90
24410;DHT22;12543;53.364;-1.504;2022-12-07T16:01:58;3.30;99.90
24410;DHT22;12543;53.364;-1.504;2022-12-07T16:04:27;3.30;99.90
24410;DHT22;12543;53.364;-1.504;2022-12-07T16:06:55;3.30;99.90
24410;DHT22;12543;53.364;-1.504;2022-12-07T16:09:23;3.30;99.90
24410;DHT22;12543;53.364;-1.504;2022-12-07T16:11:50;3.30;99.90
24410;DHT22;12543;53.364;-1.504;2022-12-07T16:14:17;3.30;99.90
24410;DHT22;12543;53.364;-1.504;2022-12-07T16:16:44;3.30;99.90
24410;DHT22;12543;53.364;-1.504;2022-12-07T16:19:11;3.30;99.90
24410;DHT22;12543;53.364;-1.504;2022-12-07T16:21:38;3.30;99.90
24410;DHT22;12543;53.364;-1.504;2022-12-07T16:24:06;3.30;99.90
24410;DHT22;12543;53.364;-1.504;2022-12-07T16:26:33;3.40;99.90
24410;DHT22;12543;53.364;-1.504;2022-12-07T16:29:00;3.40;99.90
24410;DHT22;12543;53.364;-1.504;2022-12-07T16:31:28;3.40;99.90
24410;DHT22;12543;53.364;-1.504;2022-12-07T16:33:57;3.40;99.90
24410;DHT22;12543;53.364;-1.504;2022-12-07T16:36:25;3.40;99.90
24410;DHT22;12543;53.364;-1.504;2022-12-07T16:39:14;3.40;99.90
24410;DHT22;12543;53.364;-1.504;2022-12-07T16:41:41;3.40;99.90
24410;DHT22;12543;53.364;-1.504;2022-12-07T16:44:11;3.30;99.90
24410;DHT22;12543;53.364;-1.504;2022-12-07T16:46:40;3.30;99.90
24410;DHT22;12543;53.364;-1.504;2022-12-07T16:49:16;3.30;99.90
24410;DHT22;12543;53.364;-1.504;2022-12-07T16:51:44;3.30;99.90
24410;DHT22;12543;53.364;-1.504;2022-12-07T16:54:12;3.30;99.90
24410;DHT22;12543;53.364;-1.504;2022-12-07T16:56:39;3.30;99.90
24410;DHT22;12543;53.364;-1.504;2022-12-07T16:59:07;3.30;99.90
24410;DHT22;12543;53.364;-1.504;2022-12-07T17:01:34;3.20;99.90
24410;DHT22;12543;53.364;-1.504;2022-12-07T17:04:02;3.20;99.90
24410;DHT22;12543;53.364;-1.504;2022-12-07T17:06:31;3.20;99.90
24410;DHT22;12543;53.364;-1.504;2022-12-07T17:08:59;3.20;99.90
24410;DHT22;12543;53.364;-1.504;2022-12-07T17:11:28;3.20;99.90
24410;DHT22;12543;53.364;-1.504;2022-12-07T17:13:56;3.20;99.90
24410;DHT22;12543;53.364;-1.504;2022-12-07T17:16:41;3.20;99.90
24410;DHT22;12543;53.364;-1.504;2022-12-07T17:19:11;3.20;99.90
24410;DHT22;12543;53.364;-1.504;2022-12-07T17:21:39;3.10;99.90
24410;DHT22;12543;53.364;-1.504;2022-12-07T17:24:08;3.10;99.90
24410;DHT22;12543;53.364;-1.504;2022-12-07T17:26:36;3.10;99.90
24410;DHT22;12543;53.364;-1.504;2022-12-07T17:29:05;3.10;99.90
24410;DHT22;12543;53.364;-1.504;2022-12-07T17:31:33;3.10;99.90
24410;DHT22;12543;53.364;-1.504;2022-12-07T17:34:00;3.10;99.90
24410;DHT22;12543;53.364;-1.504;2022-12-07T17:36:29;3.00;99.90
24410;DHT22;12543;53.364;-1.504;2022-12-07T17:38:57;3.00;99.90